createdAt,value
2022-10-27T03:03:11.344Z,99.99
2022-10-27T03:04:12.690Z,99.99
2022-10-27T03:05:12.887Z,99.99
2022-10-27T03:06:12.547Z,99.95
2022-10-27T03:07:12.542Z,99.54
2022-10-27T03:08:12.406Z,99.54
2022-10-27T03:09:12.420Z,99.74
2022-10-27T03:11:12.387Z,99.84
2022-10-27T03:12:12.431Z,99.49
2022-10-27T03:13:12.434Z,99.95
2022-10-27T03:14:12.385Z,99.74
2022-10-27T03:15:12.443Z,99.74
2022-10-27T03:16:12.390Z,99.90
2022-10-27T03:17:12.469Z,99.90
2022-10-27T03:18:12.427Z,99.79
2022-10-27T03:19:12.374Z,99.59
2022-10-27T03:20:12.337Z,99.90
2022-10-27T03:21:12.335Z,99.44
2022-10-27T03:22:12.344Z,99.75
2022-10-27T03:23:12.330Z,99.75
2022-10-27T03:24:12.403Z,99.44
2022-10-27T03:25:12.307Z,99.65
2022-10-27T03:26:12.336Z,99.65
2022-10-27T03:27:12.333Z,99.54
2022-10-27T03:28:12.232Z,99.50
2022-10-27T03:29:12.243Z,99.60
2022-10-27T03:30:12.233Z,99.60
2022-10-27T03:31:12.241Z,99.29
2022-10-27T03:32:12.233Z,99.09
2022-10-27T03:33:12.196Z,98.88
2022-10-27T03:34:12.201Z,98.78
2022-10-27T03:35:12.215Z,98.78
2022-10-27T03:36:12.199Z,98.68
2022-10-27T03:37:12.178Z,98.63
2022-10-27T03:38:12.193Z,98.83
2022-10-27T03:39:12.111Z,98.63
2022-10-27T03:40:12.143Z,98.53
2022-10-27T03:41:12.124Z,98.83
2022-10-27T03:42:12.092Z,98.63
2022-10-27T03:43:12.161Z,98.53
2022-10-27T03:44:12.082Z,98.83
2022-10-27T03:45:12.116Z,98.74
2022-10-27T03:46:12.164Z,98.58
2022-10-27T03:47:12.068Z,98.53
2022-10-27T03:48:12.047Z,98.33
2022-10-27T03:49:12.005Z,98.83
2022-10-27T03:50:11.955Z,98.63
2022-10-27T03:51:12.125Z,98.58
2022-10-27T03:52:12.046Z,98.58
2022-10-27T03:53:11.961Z,98.43
2022-10-27T03:54:12.026Z,98.63
2022-10-27T03:55:12.064Z,98.74
2022-10-27T03:56:12.029Z,98.79
2022-10-27T03:57:12.044Z,98.63
2022-10-27T03:58:16.346Z,98.53
2022-10-27T03:59:14.007Z,98.63
2022-10-27T04:00:11.967Z,98.53
2022-10-27T04:01:12.113Z,98.22
2022-10-27T04:02:12.055Z,98.07
2022-10-27T04:03:12.000Z,98.53
2022-10-27T04:04:11.883Z,98.53
2022-10-27T04:05:11.935Z,98.43
2022-10-27T04:06:11.893Z,98.33
2022-10-27T04:07:11.965Z,98.33
2022-10-27T04:08:11.872Z,98.38
2022-10-27T04:09:11.914Z,98.53
2022-10-27T04:10:11.910Z,98.18
2022-10-27T04:11:11.802Z,98.18
2022-10-27T04:12:11.861Z,98.49
2022-10-27T04:13:11.806Z,97.91
2022-10-27T04:14:11.819Z,98.02
2022-10-27T04:15:11.819Z,97.97
2022-10-27T04:16:11.835Z,98.28
2022-10-27T04:17:11.772Z,98.02
2022-10-27T04:18:11.745Z,97.91
2022-10-27T04:19:11.747Z,97.77
2022-10-27T04:20:11.798Z,97.77
2022-10-27T04:21:11.760Z,97.71
2022-10-27T04:22:11.765Z,97.56
2022-10-27T04:23:11.697Z,97.40
2022-10-27T04:24:11.697Z,97.50
2022-10-27T04:25:11.686Z,97.50
2022-10-27T04:26:11.789Z,97.61
2022-10-27T04:28:11.649Z,97.46
2022-10-27T04:29:11.641Z,97.66
2022-10-27T04:30:11.725Z,97.36
2022-10-27T04:31:11.579Z,97.36
2022-10-27T04:32:11.631Z,97.66
2022-10-27T04:33:11.620Z,97.61
2022-10-27T04:34:11.627Z,97.40
2022-10-27T04:35:11.581Z,97.40
2022-10-27T04:36:11.500Z,97.20
2022-10-27T04:37:11.579Z,97.61
2022-10-27T04:38:11.576Z,97.50
2022-10-27T04:39:11.520Z,97.61
2022-10-27T04:40:11.495Z,97.61
2022-10-27T04:41:11.538Z,97.40
2022-10-27T04:42:11.539Z,98.02
2022-10-27T04:43:11.502Z,97.81
2022-10-27T04:44:11.445Z,97.61
2022-10-27T04:45:11.489Z,97.61
2022-10-27T04:46:11.486Z,97.61
2022-10-27T04:47:11.478Z,97.91
2022-10-27T04:48:11.398Z,97.91
2022-10-27T04:49:11.737Z,97.61
2022-10-27T04:50:11.405Z,97.40
2022-10-27T04:51:11.458Z,97.40
2022-10-27T04:53:11.388Z,97.61
2022-10-27T04:54:11.330Z,97.71
2022-10-27T04:55:11.417Z,97.50
2022-10-27T04:56:11.347Z,97.09
2022-10-27T04:57:11.457Z,96.99
2022-10-27T04:58:11.369Z,97.20
2022-10-27T04:59:11.323Z,97.30
2022-10-27T05:00:11.341Z,96.89
2022-10-27T05:01:11.412Z,96.89
2022-10-27T05:02:11.373Z,97.20
2022-10-27T05:03:11.251Z,96.89
2022-10-27T05:04:11.576Z,97.09
2022-10-27T05:05:11.253Z,97.09
2022-10-27T05:06:11.274Z,97.09
2022-10-27T05:07:11.271Z,97.40
2022-10-27T05:08:11.405Z,97.20
2022-10-27T05:09:11.230Z,97.09
2022-10-27T05:10:11.206Z,97.30
2022-10-27T05:11:13.968Z,97.20
2022-10-27T05:12:11.348Z,97.20
2022-10-27T05:13:11.334Z,97.30
2022-10-27T05:14:11.224Z,97.20
2022-10-27T05:15:11.617Z,97.30
2022-10-27T05:16:11.154Z,97.40
2022-10-27T05:17:13.445Z,97.40
2022-10-27T05:18:11.237Z,97.40
2022-10-27T05:19:11.163Z,96.99
2022-10-27T05:20:11.164Z,97.20
2022-10-27T05:21:11.193Z,97.09
2022-10-27T05:22:11.111Z,97.09
2022-10-27T05:23:11.179Z,97.20
2022-10-27T05:24:11.143Z,97.09
2022-10-27T05:25:11.142Z,96.58
2022-10-27T05:26:11.089Z,96.79
2022-10-27T05:27:11.265Z,96.79
2022-10-27T05:28:11.174Z,96.58
2022-10-27T05:29:11.056Z,96.58
2022-10-27T05:30:11.156Z,96.94
2022-10-27T05:31:10.982Z,96.12
2022-10-27T05:32:10.991Z,96.63
2022-10-27T05:33:11.037Z,96.94
2022-10-27T05:34:11.160Z,97.04
2022-10-27T05:35:11.180Z,97.29
2022-10-27T05:36:11.141Z,97.45
2022-10-27T05:37:11.050Z,97.34
2022-10-27T05:38:11.018Z,97.70
2022-10-27T05:39:11.071Z,97.70
2022-10-27T05:40:10.894Z,98.00
2022-10-27T05:41:10.969Z,97.96
2022-10-27T05:42:11.035Z,98.11
2022-10-27T05:43:11.054Z,98.00
2022-10-27T05:44:10.864Z,98.32
2022-10-27T05:45:10.821Z,98.00
2022-10-27T05:46:10.862Z,98.57
2022-10-27T05:47:10.895Z,98.57
2022-10-27T05:48:10.738Z,98.46
2022-10-27T05:49:11.589Z,98.36
2022-10-27T05:50:10.782Z,98.87
2022-10-27T05:51:10.820Z,98.87
2022-10-27T05:52:10.812Z,98.52
2022-10-27T05:53:10.933Z,98.77
2022-10-27T05:54:10.829Z,98.77
2022-10-27T05:55:10.831Z,98.77
2022-10-27T05:56:10.826Z,98.87
2022-10-27T05:57:10.869Z,98.83
2022-10-27T05:58:11.297Z,98.72
2022-10-27T05:59:10.751Z,98.72
2022-10-27T06:00:10.660Z,99.03
2022-10-27T06:01:11.239Z,99.13
2022-10-27T06:02:10.839Z,98.68
2022-10-27T06:03:10.717Z,98.37
2022-10-27T06:04:10.656Z,98.47
2022-10-27T06:05:10.619Z,98.52
2022-10-27T06:06:10.660Z,98.42
2022-10-27T06:07:10.780Z,98.27
2022-10-27T06:08:10.729Z,98.32
2022-10-27T06:09:10.606Z,98.16
2022-10-27T06:10:10.652Z,98.37
2022-10-27T06:11:10.688Z,98.27
2022-10-27T06:12:10.665Z,98.07
2022-10-27T06:13:10.588Z,98.37
2022-10-27T06:14:10.659Z,98.37
2022-10-27T06:15:10.730Z,97.96
2022-10-27T06:16:13.003Z,97.71
2022-10-27T06:17:10.565Z,97.96
2022-10-27T06:18:10.553Z,97.86
2022-10-27T06:19:10.618Z,97.96
2022-10-27T06:20:10.517Z,97.75
2022-10-27T06:21:10.473Z,97.86
2022-10-27T06:22:15.553Z,97.81
2022-10-27T06:23:12.580Z,97.75
2022-10-27T06:24:10.444Z,97.75
2022-10-27T06:25:10.455Z,97.81
2022-10-27T06:26:10.538Z,97.75
2022-10-27T06:27:10.510Z,97.61
2022-10-27T06:28:10.447Z,97.40
2022-10-27T06:29:10.461Z,97.75
2022-10-27T06:30:10.417Z,97.65
2022-10-27T06:31:10.486Z,97.45
2022-10-27T06:32:10.408Z,97.50
2022-10-27T06:33:10.394Z,97.50
2022-10-27T06:34:10.424Z,97.40
2022-10-27T06:35:10.397Z,97.55
2022-10-27T06:36:10.457Z,97.40
2022-10-27T06:37:10.382Z,97.40
2022-10-27T06:38:10.374Z,97.40
2022-10-27T06:39:10.420Z,97.55
2022-10-27T06:40:10.349Z,97.24
2022-10-27T06:41:11.171Z,97.24
2022-10-27T06:42:10.333Z,97.14
2022-10-27T06:43:10.625Z,97.24
2022-10-27T06:44:10.266Z,97.55
2022-10-27T06:45:10.384Z,97.61
2022-10-27T06:46:10.289Z,97.50
2022-10-27T06:47:10.248Z,98.02
2022-10-27T06:48:10.298Z,97.91
2022-10-27T06:49:11.378Z,97.30
2022-10-27T06:50:10.303Z,97.30
2022-10-27T06:51:10.292Z,97.61
2022-10-27T06:52:10.243Z,97.61
2022-10-27T06:53:10.181Z,97.81
2022-10-27T06:54:10.108Z,98.16
2022-10-27T06:55:10.201Z,98.27
2022-10-27T06:56:10.162Z,98.02
2022-10-27T06:57:10.193Z,97.81
2022-10-27T06:58:10.099Z,98.22
2022-10-27T06:59:10.066Z,97.91
2022-10-27T07:00:10.042Z,97.91
2022-10-27T07:01:10.200Z,98.07
2022-10-27T07:02:10.116Z,98.18
2022-10-27T07:04:10.056Z,98.07
2022-10-27T07:05:10.030Z,97.77
2022-10-27T07:06:10.096Z,97.87
2022-10-27T07:07:10.011Z,97.56
2022-10-27T07:08:10.042Z,97.56
2022-10-27T07:09:10.202Z,97.46
2022-10-27T07:10:09.996Z,97.77
2022-10-27T07:11:10.034Z,97.97
2022-10-27T07:12:10.032Z,97.97
2022-10-27T07:13:10.064Z,97.87
2022-10-27T07:14:09.947Z,97.36
2022-10-27T07:15:10.023Z,97.46
2022-10-27T07:16:10.042Z,97.36
2022-10-27T07:17:10.009Z,97.56
2022-10-27T07:18:10.011Z,97.36
2022-10-27T07:19:09.893Z,97.66
2022-10-27T07:20:09.867Z,97.66
2022-10-27T07:21:09.922Z,97.87
2022-10-27T07:22:09.872Z,97.87
2022-10-27T07:23:09.918Z,97.87
2022-10-27T07:24:14.129Z,97.92
2022-10-27T07:25:11.003Z,98.03
2022-10-27T07:26:09.933Z,97.77
2022-10-27T07:27:11.050Z,97.72
2022-10-27T07:28:10.787Z,97.72
2022-10-27T07:29:09.762Z,97.41
2022-10-27T07:30:09.848Z,97.52
2022-10-27T07:31:09.813Z,97.21
2022-10-27T07:32:09.790Z,97.11
2022-10-27T07:33:09.790Z,97.21
2022-10-27T07:34:09.818Z,96.66
2022-10-27T07:35:09.791Z,97.27
2022-10-27T07:36:09.715Z,97.16
2022-10-27T07:37:09.660Z,97.16
2022-10-27T07:38:09.716Z,96.96
2022-10-27T07:39:09.777Z,97.16
2022-10-27T07:40:09.740Z,97.06
2022-10-27T07:41:09.792Z,96.25
2022-10-27T07:42:09.819Z,96.45
2022-10-27T07:43:09.683Z,96.75
2022-10-27T07:44:09.765Z,97.06
2022-10-27T07:45:09.761Z,96.86
2022-10-27T07:46:09.802Z,97.00
2022-10-27T07:47:09.816Z,97.31
2022-10-27T07:48:09.709Z,97.92
2022-10-27T07:49:09.670Z,97.72
2022-10-27T07:50:09.644Z,97.82
2022-10-27T07:51:09.524Z,98.13
2022-10-27T07:52:09.774Z,97.92
2022-10-27T07:53:09.646Z,97.98
2022-10-27T07:54:09.620Z,97.88
2022-10-27T07:55:11.666Z,98.08
2022-10-27T07:56:09.679Z,98.08
2022-10-27T07:57:09.642Z,97.94
2022-10-27T07:58:09.503Z,97.74
2022-10-27T07:59:09.736Z,97.63
2022-10-27T08:00:09.682Z,98.10
2022-10-27T08:01:09.703Z,97.69
2022-10-27T08:02:09.629Z,97.17
2022-10-27T08:03:09.431Z,96.97
2022-10-27T08:04:09.549Z,97.17
2022-10-27T08:05:09.566Z,97.02
2022-10-27T08:06:09.477Z,96.92
2022-10-27T08:07:09.411Z,96.81
2022-10-27T08:08:09.726Z,96.61
2022-10-27T08:09:09.513Z,96.30
2022-10-27T08:10:09.494Z,96.20
2022-10-27T08:11:09.669Z,96.00
2022-10-27T08:12:09.440Z,96.10
2022-10-27T08:13:09.438Z,96.10
2022-10-27T08:14:10.676Z,96.05
2022-10-27T08:15:09.377Z,96.10
2022-10-27T08:16:09.504Z,96.41
2022-10-27T08:17:09.393Z,95.89
2022-10-27T08:18:09.399Z,96.71
2022-10-27T08:19:09.254Z,96.20
2022-10-27T08:20:09.370Z,96.61
2022-10-27T08:21:09.252Z,96.51
2022-10-27T08:22:13.022Z,96.92
2022-10-27T08:23:10.393Z,97.33
2022-10-27T08:24:09.393Z,96.87
2022-10-27T08:25:10.212Z,97.02
2022-10-27T08:26:10.347Z,97.12
2022-10-27T08:27:09.195Z,97.06
2022-10-27T08:28:09.252Z,97.22
2022-10-27T08:29:09.324Z,97.02
2022-10-27T08:30:09.371Z,97.22
2022-10-27T08:31:09.261Z,97.12
2022-10-27T08:32:09.162Z,97.02
2022-10-27T08:33:09.213Z,96.56
2022-10-27T08:34:09.170Z,96.56
2022-10-27T08:35:09.238Z,96.56
2022-10-27T08:36:09.332Z,96.46
2022-10-27T08:37:09.180Z,96.56
2022-10-27T08:38:09.232Z,97.02
2022-10-27T08:39:09.204Z,97.02
2022-10-27T08:40:09.100Z,96.92
2022-10-27T08:41:09.088Z,96.26
2022-10-27T08:42:09.123Z,96.46
2022-10-27T08:43:09.079Z,96.26
2022-10-27T08:44:09.064Z,96.26
2022-10-27T08:45:09.052Z,95.34
2022-10-27T08:46:09.042Z,95.64
2022-10-27T08:47:09.052Z,95.54
2022-10-27T08:48:09.002Z,95.85
2022-10-27T08:49:09.220Z,95.64
2022-10-27T08:50:09.082Z,95.95
2022-10-27T08:51:09.054Z,96.42
2022-10-27T08:52:09.006Z,96.11
2022-10-27T08:53:08.902Z,96.31
2022-10-27T08:54:10.011Z,95.76
2022-10-27T08:55:08.935Z,96.06
2022-10-27T08:56:08.951Z,96.17
2022-10-27T08:57:08.866Z,95.96
2022-10-27T08:58:08.855Z,95.35
2022-10-27T08:59:08.856Z,95.35
2022-10-27T09:00:08.852Z,95.39
2022-10-27T09:01:09.002Z,95.39
2022-10-27T09:02:08.929Z,95.56
2022-10-27T09:03:08.930Z,94.74
2022-10-27T09:04:08.751Z,95.19
2022-10-27T09:05:11.429Z,95.39
2022-10-27T09:06:11.557Z,94.94
2022-10-27T09:07:10.049Z,95.56
2022-10-27T09:08:09.852Z,95.56
2022-10-27T09:09:08.848Z,95.86
2022-10-27T09:10:08.866Z,95.45
2022-10-27T09:11:08.782Z,95.15
2022-10-27T09:12:08.662Z,95.65
2022-10-27T09:13:08.701Z,96.01
2022-10-27T09:14:08.784Z,95.96
2022-10-27T09:15:08.633Z,96.02
2022-10-27T09:16:08.675Z,96.27
2022-10-27T09:17:08.668Z,96.47
2022-10-27T09:18:08.702Z,96.63
2022-10-27T09:19:08.769Z,96.53
2022-10-27T09:20:08.717Z,96.73
2022-10-27T09:21:08.795Z,96.73
2022-10-27T09:22:08.889Z,95.92
2022-10-27T09:23:10.512Z,96.06
2022-10-27T09:24:08.782Z,96.33
2022-10-27T09:25:08.655Z,95.96
2022-10-27T09:26:08.798Z,96.17
2022-10-27T09:27:08.674Z,96.53
2022-10-27T09:28:08.608Z,96.84
2022-10-27T09:29:08.611Z,95.81
2022-10-27T09:30:12.911Z,96.47
2022-10-27T09:31:08.614Z,96.63
2022-10-27T09:32:08.615Z,96.73
2022-10-27T09:33:08.572Z,96.84
2022-10-27T09:34:08.550Z,96.73
2022-10-27T09:35:08.653Z,97.24
2022-10-27T09:36:08.536Z,97.09
2022-10-27T09:37:08.560Z,96.89
2022-10-27T09:38:08.524Z,96.95
2022-10-27T09:39:08.595Z,96.23
2022-10-27T09:40:08.540Z,95.83
2022-10-27T09:41:08.500Z,95.12
2022-10-27T09:42:08.457Z,95.62
2022-10-27T09:43:08.430Z,95.52
2022-10-27T09:44:08.421Z,95.62
2022-10-27T09:45:08.431Z,95.12
2022-10-27T09:46:08.358Z,95.62
2022-10-27T09:47:08.423Z,95.32
2022-10-27T09:48:08.368Z,95.07
2022-10-27T09:49:10.872Z,95.21
2022-10-27T09:50:09.910Z,95.28
2022-10-27T09:51:08.342Z,95.28
2022-10-27T09:52:08.294Z,94.97
2022-10-27T09:53:08.305Z,94.66
2022-10-27T09:54:08.276Z,94.46
2022-10-27T09:55:08.303Z,94.82
2022-10-27T09:56:08.268Z,94.97
2022-10-27T09:57:08.190Z,94.31
2022-10-27T09:58:08.250Z,94.11
2022-10-27T09:59:08.327Z,94.31
2022-10-27T10:00:08.248Z,94.01
2022-10-27T10:01:08.271Z,94.21
2022-10-27T10:02:08.512Z,94.01
2022-10-27T10:03:08.225Z,94.01
2022-10-27T10:04:11.812Z,94.31
2022-10-27T10:05:08.208Z,94.01
2022-10-27T10:06:08.221Z,94.01
2022-10-27T10:07:08.124Z,94.27
2022-10-27T10:08:08.195Z,94.31
2022-10-27T10:09:08.124Z,93.35
2022-10-27T10:10:08.100Z,93.45
2022-10-27T10:11:08.161Z,93.96
2022-10-27T10:12:08.387Z,93.86
2022-10-27T10:13:08.127Z,94.07
2022-10-27T10:14:08.076Z,94.32
2022-10-27T10:15:08.134Z,93.86
2022-10-27T10:16:08.090Z,94.07
2022-10-27T10:17:08.070Z,93.41
2022-10-27T10:18:08.019Z,94.07
2022-10-27T10:19:08.069Z,93.31
2022-10-27T10:20:08.034Z,93.10
2022-10-27T10:21:08.045Z,93.10
2022-10-27T10:22:08.015Z,93.10
2022-10-27T10:23:07.952Z,93.31
2022-10-27T10:24:08.107Z,93.01
2022-10-27T10:25:07.988Z,93.41
2022-10-27T10:26:07.987Z,92.76
2022-10-27T10:27:07.946Z,92.76
2022-10-27T10:28:07.963Z,92.45
2022-10-27T10:29:07.931Z,92.55
2022-10-27T10:30:07.921Z,92.35
2022-10-27T10:31:07.926Z,92.35
2022-10-27T10:32:07.924Z,92.10
2022-10-27T10:33:07.892Z,92.25
2022-10-27T10:34:07.950Z,92.14
2022-10-27T10:35:07.869Z,92.55
2022-10-27T10:36:07.911Z,92.35
2022-10-27T10:37:07.864Z,92.29
2022-10-27T10:38:07.842Z,92.60
2022-10-27T10:39:07.827Z,92.80
2022-10-27T10:40:07.815Z,92.80
2022-10-27T10:41:07.810Z,92.70
2022-10-27T10:42:07.799Z,92.90
2022-10-27T10:43:07.769Z,93.31
2022-10-27T10:44:07.777Z,94.08
2022-10-27T10:45:07.780Z,93.51
2022-10-27T10:46:07.787Z,94.08
2022-10-27T10:47:07.762Z,94.08
2022-10-27T10:48:07.737Z,93.77
2022-10-27T10:49:07.731Z,94.08
2022-10-27T10:50:07.693Z,93.12
2022-10-27T10:51:07.737Z,93.02
2022-10-27T10:52:07.657Z,92.51
2022-10-27T10:53:07.688Z,92.41
2022-10-27T10:54:07.658Z,92.47
2022-10-27T10:55:07.624Z,93.18
2022-10-27T10:56:07.638Z,92.61
2022-10-27T10:57:07.679Z,92.97
2022-10-27T10:58:07.631Z,92.06
2022-10-27T10:59:07.610Z,92.30
2022-10-27T11:00:07.610Z,92.67
2022-10-27T11:01:07.823Z,92.77
2022-10-27T11:02:07.651Z,92.02
2022-10-27T11:03:07.547Z,91.30
2022-10-27T11:04:07.567Z,91.51
2022-10-27T11:05:07.528Z,91.86
2022-10-27T11:06:07.578Z,91.55
2022-10-27T11:07:07.556Z,92.36
2022-10-27T11:08:07.545Z,91.91
2022-10-27T11:09:07.528Z,92.32
2022-10-27T11:10:09.837Z,92.02
2022-10-27T11:11:08.457Z,91.36
2022-10-27T11:12:07.487Z,91.52
2022-10-27T11:13:07.434Z,91.02
2022-10-27T11:14:07.450Z,90.36
2022-10-27T11:15:07.469Z,89.31
2022-10-27T11:16:07.471Z,88.96
2022-10-27T11:17:07.474Z,87.51
2022-10-27T11:18:07.414Z,86.19
2022-10-27T11:19:07.425Z,86.90
2022-10-27T11:20:07.431Z,85.44
2022-10-27T11:21:07.400Z,84.71
2022-10-27T11:22:07.412Z,81.80
2022-10-27T11:23:07.391Z,80.18
2022-10-27T11:24:07.399Z,77.72
2022-10-27T11:25:07.364Z,77.48
2022-10-27T11:26:08.369Z,76.77
2022-10-27T11:27:07.306Z,76.20
2022-10-27T11:28:07.344Z,75.19
2022-10-27T11:29:07.300Z,73.88
2022-10-27T11:30:07.328Z,71.20
2022-10-27T11:31:07.372Z,70.23
2022-10-27T11:32:07.290Z,69.59
2022-10-27T11:33:07.275Z,69.42
2022-10-27T11:34:07.310Z,67.09
2022-10-27T11:35:07.353Z,66.05
2022-10-27T11:36:10.251Z,65.45
2022-10-27T11:37:07.302Z,65.72
2022-10-27T11:38:07.233Z,64.69
2022-10-27T11:39:07.229Z,63.69
2022-10-27T11:40:07.467Z,65.06
2022-10-27T11:41:07.250Z,63.19
2022-10-27T11:42:07.364Z,64.16
2022-10-27T11:43:07.201Z,63.29
2022-10-27T11:44:10.020Z,63.86
2022-10-27T11:45:08.135Z,63.73
2022-10-27T11:46:07.160Z,63.70
2022-10-27T11:47:07.146Z,62.18
2022-10-27T11:48:07.121Z,62.57
2022-10-27T11:49:07.157Z,63.07
2022-10-27T11:50:07.112Z,62.45
2022-10-27T11:51:07.122Z,61.15
2022-10-27T11:52:07.079Z,61.02
2022-10-27T11:53:12.325Z,61.22
2022-10-27T11:54:09.105Z,60.46
2022-10-27T11:55:07.056Z,59.99
2022-10-27T11:56:09.293Z,60.79
2022-10-27T11:57:11.829Z,60.56
2022-10-27T11:58:07.996Z,60.66
2022-10-27T11:59:06.979Z,59.74
2022-10-27T12:00:06.980Z,59.53
2022-10-27T12:01:07.130Z,59.04
2022-10-27T12:02:07.273Z,58.54
2022-10-27T12:03:07.063Z,60.56
2022-10-27T12:04:06.964Z,59.23
2022-10-27T12:05:06.971Z,58.01
2022-10-27T12:06:06.975Z,57.89
2022-10-27T12:07:06.945Z,57.39
2022-10-27T12:08:39.589Z,57.17
2022-10-27T12:09:07.847Z,57.56
2022-10-27T12:10:07.110Z,57.59
2022-10-27T12:11:06.900Z,57.92
2022-10-27T12:12:39.457Z,59.01
2022-10-27T12:13:07.191Z,59.61
2022-10-27T12:14:07.179Z,59.01
2022-10-27T12:15:39.659Z,58.91
2022-10-27T12:16:07.088Z,57.89
2022-10-27T12:17:39.420Z,58.48
2022-10-27T12:18:09.895Z,58.69
2022-10-27T12:19:39.451Z,57.17
2022-10-27T12:20:06.979Z,58.03
2022-10-27T12:21:40.496Z,58.10
2022-10-27T12:22:06.959Z,55.59
2022-10-27T12:23:39.450Z,54.90
2022-10-27T12:24:39.335Z,55.72
2022-10-27T12:25:06.875Z,55.72
2022-10-27T12:26:40.517Z,56.44
2022-10-27T12:27:06.974Z,55.72
2022-10-27T12:28:06.981Z,55.57
2022-10-27T12:29:39.309Z,55.24
2022-10-27T12:30:39.342Z,54.57
2022-10-27T12:31:07.023Z,55.59
2022-10-27T12:32:33.633Z,55.47
2022-10-27T12:33:06.851Z,54.94
2022-10-27T12:34:39.287Z,54.94
2022-10-27T12:35:39.334Z,54.62
2022-10-27T12:36:07.020Z,53.20
2022-10-27T12:37:39.300Z,54.10
2022-10-27T12:38:06.881Z,54.47
2022-10-27T12:39:39.221Z,53.35
2022-10-27T12:40:39.687Z,53.45
2022-10-27T12:41:40.246Z,54.14
2022-10-27T12:42:33.525Z,53.25
2022-10-27T12:43:37.401Z,52.96
2022-10-27T12:44:33.218Z,53.65
2022-10-27T12:45:39.156Z,53.55
2022-10-27T12:46:40.418Z,54.05
2022-10-27T12:47:06.738Z,54.07
2022-10-27T12:48:39.073Z,54.52
2022-10-27T12:49:39.120Z,55.61
2022-10-27T12:53:36.612Z,57.73
2022-10-27T12:56:20.836Z,60.89
2022-10-27T12:58:42.854Z,63.44
2022-10-27T13:03:06.758Z,63.71
2022-10-27T13:04:14.462Z,63.28
2022-10-27T13:05:40.499Z,62.45
2022-10-27T13:06:41.753Z,61.00
2022-10-27T13:11:57.509Z,55.39
2022-10-27T13:13:05.280Z,54.69
2022-10-27T13:14:05.490Z,54.79
2022-10-27T13:15:05.162Z,54.79
2022-10-27T13:16:32.324Z,54.77
2022-10-27T13:17:25.224Z,54.64
2022-10-27T13:18:31.164Z,54.54
2022-10-27T13:19:31.234Z,53.82
2022-10-27T13:20:31.385Z,53.50
2022-10-27T13:21:32.562Z,53.30
2022-10-27T13:22:31.117Z,53.20
2022-10-27T13:28:34.742Z,51.70
2022-10-27T13:31:46.069Z,51.37
2022-10-27T13:36:54.524Z,52.31
2022-10-27T13:44:25.775Z,55.09
2022-10-27T13:47:44.102Z,55.61
2022-10-27T13:57:11.344Z,61.19
2022-10-27T13:58:46.370Z,62.34
2022-10-27T14:03:20.880Z,65.76
2022-10-27T14:04:20.983Z,66.69
2022-10-27T14:07:42.660Z,66.86
2022-10-27T14:15:14.214Z,69.32
2022-10-27T14:30:45.235Z,72.47
2022-10-27T14:34:30.799Z,72.87
2022-10-27T14:44:27.891Z,75.95
2022-10-27T14:50:34.603Z,77.13
2022-10-27T15:01:27.403Z,80.93
